sensor_id;sensor_type;location;lat;lon;timestamp;pressure;altitude;pressure_sealevel;temperature;humidity
48778;BME280;34578;0.000;0.000;2024-01-06T00:02:40;95459.50;;;18.32;55.60
48778;BME280;34578;0.000;0.000;2024-01-06T00:07:41;95458.63;;;18.33;55.46
48778;BME280;34578;0.000;0.000;2024-01-06T00:12:41;95447.63;;;18.34;55.24
48778;BME280;34578;0.000;0.000;2024-01-06T00:17:41;95457.72;;;18.35;55.14
48778;BME280;34578;0.000;0.000;2024-01-06T00:22:41;95453.59;;;18.30;55.22
48778;BME280;34578;0.000;0.000;2024-01-06T00:27:44;95468.69;;;18.36;55.21
48778;BME280;34578;0.000;0.000;2024-01-06T00:32:47;95472.03;;;18.38;55.03
48778;BME280;34578;0.000;0.000;2024-01-06T00:37:47;95472.09;;;18.35;55.55
48778;BME280;34578;0.000;0.000;2024-01-06T00:42:47;95476.28;;;18.37;55.00
48778;BME280;34578;0.000;0.000;2024-01-06T00:47:48;95480.56;;;18.34;54.92
48778;BME280;34578;0.000;0.000;2024-01-06T00:52:48;95492.38;;;18.33;54.96
48778;BME280;34578;0.000;0.000;2024-01-06T00:57:52;95511.78;;;18.34;54.94
48778;BME280;34578;0.000;0.000;2024-01-06T01:02:52;95505.91;;;18.32;55.01
48778;BME280;34578;0.000;0.000;2024-01-06T01:07:53;95520.25;;;18.33;54.94
48778;BME280;34578;0.000;0.000;2024-01-06T01:12:53;95528.72;;;18.32;55.03
48778;BME280;34578;0.000;0.000;2024-01-06T01:17:53;95532.03;;;18.34;54.90
48778;BME280;34578;0.000;0.000;2024-01-06T01:22:54;95530.38;;;18.33;54.97
48778;BME280;34578;0.000;0.000;2024-01-06T01:27:54;95528.72;;;18.32;54.98
48778;BME280;34578;0.000;0.000;2024-01-06T01:32:54;95540.50;;;18.33;55.11
48778;BME280;34578;0.000;0.000;2024-01-06T01:37:55;95551.44;;;18.35;54.77
48778;BME280;34578;0.000;0.000;2024-01-06T01:42:55;95551.50;;;18.34;54.72
48778;BME280;34578;0.000;0.000;2024-01-06T01:47:55;95561.53;;;18.40;54.68
48778;BME280;34578;0.000;0.000;2024-01-06T01:52:56;95560.66;;;18.41;54.57
48778;BME280;34578;0.000;0.000;2024-01-06T01:57:56;95563.22;;;18.39;54.61
48778;BME280;34578;0.000;0.000;2024-01-06T02:02:58;95561.53;;;18.40;54.36
48778;BME280;34578;0.000;0.000;2024-01-06T02:07:59;95565.78;;;18.38;54.69
48778;BME280;34578;0.000;0.000;2024-01-06T02:13:12;95576.75;;;18.38;54.97
48778;BME280;34578;0.000;0.000;2024-01-06T02:18:13;95559.97;;;18.33;55.16
48778;BME280;34578;0.000;0.000;2024-01-06T02:23:13;95565.84;;;18.35;55.42
48778;BME280;34578;0.000;0.000;2024-01-06T02:28:13;95581.84;;;18.35;54.99
48778;BME280;34578;0.000;0.000;2024-01-06T02:33:14;95586.09;;;18.36;55.02
48778;BME280;34578;0.000;0.000;2024-01-06T02:38:14;95586.91;;;18.37;55.09
48778;BME280;34578;0.000;0.000;2024-01-06T02:43:14;95590.31;;;18.36;55.07
48778;BME280;34578;0.000;0.000;2024-01-06T02:48:15;95592.03;;;18.34;55.24
48778;BME280;34578;0.000;0.000;2024-01-06T02:53:16;95593.72;;;18.35;55.11
48778;BME280;34578;0.000;0.000;2024-01-06T02:58:16;95591.16;;;18.35;54.67
48778;BME280;34578;0.000;0.000;2024-01-06T03:03:16;95594.53;;;18.35;55.06
48778;BME280;34578;0.000;0.000;2024-01-06T03:08:17;95591.16;;;18.35;55.00
48778;BME280;34578;0.000;0.000;2024-01-06T03:13:17;95582.78;;;18.33;55.00
48778;BME280;34578;0.000;0.000;2024-01-06T03:18:18;95590.38;;;18.33;54.71
48778;BME280;34578;0.000;0.000;2024-01-06T03:23:18;95588.69;;;18.32;54.81
48778;BME280;34578;0.000;0.000;2024-01-06T03:28:18;95586.91;;;18.35;54.39
48778;BME280;34578;0.000;0.000;2024-01-06T03:33:19;95577.63;;;18.36;54.64
48778;BME280;34578;0.000;0.000;2024-01-06T03:38:19;95576.84;;;18.34;54.76
48778;BME280;34578;0.000;0.000;2024-01-06T03:43:19;95589.50;;;18.34;54.93
48778;BME280;34578;0.000;0.000;2024-01-06T03:48:20;95575.19;;;18.30;54.45
48778;BME280;34578;0.000;0.000;2024-01-06T03:53:22;95588.63;;;18.35;54.61
48778;BME280;34578;0.000;0.000;2024-01-06T03:58:23;95581.91;;;18.34;54.46
48778;BME280;34578;0.000;0.000;2024-01-06T04:03:23;95592.94;;;18.30;54.89
48778;BME280;34578;0.000;0.000;2024-01-06T04:08:23;95601.31;;;18.33;54.88
48778;BME280;34578;0.000;0.000;2024-01-06T04:13:24;95587.03;;;18.28;54.85
48778;BME280;34578;0.000;0.000;2024-01-06T04:18:25;95597.13;;;18.32;54.70
48778;BME280;34578;0.000;0.000;2024-01-06T04:23:25;95601.31;;;18.33;54.64
48778;BME280;34578;0.000;0.000;2024-01-06T04:28:25;95597.13;;;18.31;54.59
48778;BME280;34578;0.000;0.000;2024-01-06T04:33:26;95592.94;;;18.30;54.75
48778;BME280;34578;0.000;0.000;2024-01-06T04:38:26;95601.38;;;18.32;54.34
48778;BME280;34578;0.000;0.000;2024-01-06T04:43:26;95602.25;;;18.28;54.46
48778;BME280;34578;0.000;0.000;2024-01-06T04:48:27;95601.41;;;18.27;54.63
48778;BME280;34578;0.000;0.000;2024-01-06T04:53:27;95606.50;;;18.26;54.62
48778;BME280;34578;0.000;0.000;2024-01-06T04:58:27;95598.84;;;18.30;54.71
48778;BME280;34578;0.000;0.000;2024-01-06T05:03:28;95600.56;;;18.28;54.67
48778;BME280;34578;0.000;0.000;2024-01-06T05:08:28;95608.16;;;18.28;54.58
48778;BME280;34578;0.000;0.000;2024-01-06T05:13:30;95609.81;;;18.31;54.57
48778;BME280;34578;0.000;0.000;2024-01-06T05:18:31;95621.66;;;18.30;54.54
48778;BME280;34578;0.000;0.000;2024-01-06T05:23:31;95619.09;;;18.29;54.48
48778;BME280;34578;0.000;0.000;2024-01-06T05:28:31;95629.25;;;18.32;54.97
48778;BME280;34578;0.000;0.000;2024-01-06T05:33:32;95629.25;;;18.29;55.17
48778;BME280;34578;0.000;0.000;2024-01-06T05:38:32;95625.09;;;18.25;54.80
48778;BME280;34578;0.000;0.000;2024-01-06T05:43:32;95638.56;;;18.28;55.07
48778;BME280;34578;0.000;0.000;2024-01-06T05:48:33;95641.91;;;18.32;54.83
48778;BME280;34578;0.000;0.000;2024-01-06T05:53:33;95644.44;;;18.29;55.08
48778;BME280;34578;0.000;0.000;2024-01-06T05:58:33;95640.31;;;18.25;54.76
48778;BME280;34578;0.000;0.000;2024-01-06T06:03:34;95655.44;;;18.28;54.68
48778;BME280;34578;0.000;0.000;2024-01-06T06:08:34;95658.03;;;18.25;54.90
48778;BME280;34578;0.000;0.000;2024-01-06T06:13:34;95649.56;;;18.26;54.59
48778;BME280;34578;0.000;0.000;2024-01-06T06:18:35;95655.44;;;18.28;54.47
48778;BME280;34578;0.000;0.000;2024-01-06T06:23:35;95661.34;;;18.30;54.49
48778;BME280;34578;0.000;0.000;2024-01-06T06:28:36;95672.31;;;18.32;54.63
48778;BME280;34578;0.000;0.000;2024-01-06T06:33:36;95674.81;;;18.33;54.37
48778;BME280;34578;0.000;0.000;2024-01-06T06:38:36;95700.94;;;18.37;54.07
48778;BME280;34578;0.000;0.000;2024-01-06T06:43:37;95702.59;;;18.38;54.19
48778;BME280;34578;0.000;0.000;2024-01-06T06:48:37;95703.47;;;18.37;54.18
48778;BME280;34578;0.000;0.000;2024-01-06T06:53:40;95706.88;;;18.36;54.14
48778;BME280;34578;0.000;0.000;2024-01-06T06:58:40;95710.19;;;18.38;54.11
48778;BME280;34578;0.000;0.000;2024-01-06T07:03:41;95719.47;;;18.39;54.02
48778;BME280;34578;0.000;0.000;2024-01-06T07:08:42;95716.13;;;18.37;54.27
48778;BME280;34578;0.000;0.000;2024-01-06T07:13:42;95720.34;;;18.38;53.89
48778;BME280;34578;0.000;0.000;2024-01-06T07:18:43;95711.16;;;18.31;54.08
48778;BME280;34578;0.000;0.000;2024-01-06T07:23:43;95720.34;;;18.38;53.83
48778;BME280;34578;0.000;0.000;2024-01-06T07:28:46;95732.19;;;18.36;54.14
48778;BME280;34578;0.000;0.000;2024-01-06T07:33:46;95735.59;;;18.35;54.61
48778;BME280;34578;0.000;0.000;2024-01-06T07:38:47;95729.66;;;18.36;54.71
48778;BME280;34578;0.000;0.000;2024-01-06T07:43:47;95733.88;;;18.35;54.59
48778;BME280;34578;0.000;0.000;2024-01-06T07:48:47;95732.16;;;18.39;54.77
48778;BME280;34578;0.000;0.000;2024-01-06T07:53:48;95742.28;;;18.39;54.63
48778;BME280;34578;0.000;0.000;2024-01-06T07:58:48;95742.28;;;18.39;54.66
48778;BME280;34578;0.000;0.000;2024-01-06T08:03:49;95752.41;;;18.39;54.13
48778;BME280;34578;0.000;0.000;2024-01-06T08:08:49;95747.41;;;18.37;53.72
48778;BME280;34578;0.000;0.000;2024-01-06T08:13:49;95749.06;;;18.37;52.83
48778;BME280;34578;0.000;0.000;2024-01-06T08:18:50;95749.09;;;18.35;54.21
48778;BME280;34578;0.000;0.000;2024-01-06T08:23:50;95750.84;;;18.32;54.92
48778;BME280;34578;0.000;0.000;2024-01-06T08:28:51;95755.81;;;18.38;54.73
48778;BME280;34578;0.000;0.000;2024-01-06T08:33:51;95762.53;;;18.42;52.61
48778;BME280;34578;0.000;0.000;2024-01-06T08:38:51;95769.31;;;18.40;53.47
48778;BME280;34578;0.000;0.000;2024-01-06T08:43:52;95766.91;;;18.28;54.38
48778;BME280;34578;0.000;0.000;2024-01-06T08:48:52;95775.44;;;18.24;54.79
48778;BME280;34578;0.000;0.000;2024-01-06T08:53:52;95787.22;;;18.29;55.20
48778;BME280;34578;0.000;0.000;2024-01-06T08:58:53;95796.50;;;18.26;54.35
48778;BME280;34578;0.000;0.000;2024-01-06T09:03:54;95799.06;;;18.24;55.41
48778;BME280;34578;0.000;0.000;2024-01-06T09:08:54;95795.72;;;18.21;55.55
48778;BME280;34578;0.000;0.000;2024-01-06T09:13:55;95806.66;;;18.23;55.07
48778;BME280;34578;0.000;0.000;2024-01-06T09:18:55;95800.78;;;18.24;55.07
48778;BME280;34578;0.000;0.000;2024-01-06T09:23:55;95800.78;;;18.24;54.69
48778;BME280;34578;0.000;0.000;2024-01-06T09:28:56;95788.13;;;18.21;55.43
48778;BME280;34578;0.000;0.000;2024-01-06T09:34:00;95797.41;;;18.22;55.36
48778;BME280;34578;0.000;0.000;2024-01-06T09:39:01;95791.53;;;18.20;55.50
48778;BME280;34578;0.000;0.000;2024-01-06T09:44:02;95793.25;;;18.18;54.91
48778;BME280;34578;0.000;0.000;2024-01-06T09:49:02;95803.31;;;18.21;55.31
48778;BME280;34578;0.000;0.000;2024-01-06T09:54:10;95810.97;;;18.18;55.02
48778;BME280;34578;0.000;0.000;2024-01-06T09:59:12;95812.66;;;18.19;54.54
48778;BME280;34578;0.000;0.000;2024-01-06T10:04:12;95820.19;;;18.22;54.29
48778;BME280;34578;0.000;0.000;2024-01-06T10:09:13;95814.25;;;18.24;54.13
48778;BME280;34578;0.000;0.000;2024-01-06T10:14:13;95813.38;;;18.27;53.88
48778;BME280;34578;0.000;0.000;2024-01-06T10:19:13;95814.25;;;18.24;53.29
48778;BME280;34578;0.000;0.000;2024-01-06T10:24:14;95814.25;;;18.27;53.79
48778;BME280;34578;0.000;0.000;2024-01-06T10:29:14;95816.78;;;18.26;53.26
48778;BME280;34578;0.000;0.000;2024-01-06T10:34:14;95826.91;;;18.26;53.59
48778;BME280;34578;0.000;0.000;2024-01-06T10:39:15;95815.97;;;18.24;53.41
48778;BME280;34578;0.000;0.000;2024-01-06T10:44:16;95803.31;;;18.21;53.59
48778;BME280;34578;0.000;0.000;2024-01-06T10:49:17;95810.84;;;18.30;52.77
48778;BME280;34578;0.000;0.000;2024-01-06T10:54:18;95807.47;;;18.28;52.71
48778;BME280;34578;0.000;0.000;2024-01-06T10:59:21;95800.72;;;18.27;52.05
48778;BME280;34578;0.000;0.000;2024-01-06T11:04:23;95803.25;;;18.27;53.87
48778;BME280;34578;0.000;0.000;2024-01-06T11:09:27;95808.28;;;18.30;54.21
48778;BME280;34578;0.000;0.000;2024-01-06T11:14:37;95805.78;;;18.27;54.03
48778;BME280;34578;0.000;0.000;2024-01-06T11:24:38;95801.53;;;18.29;53.05
48778;BME280;34578;0.000;0.000;2024-01-06T11:29:44;95804.09;;;18.27;53.56
48778;BME280;34578;0.000;0.000;2024-01-06T11:34:49;95801.56;;;18.27;53.53
48778;BME280;34578;0.000;0.000;2024-01-06T11:39:50;95795.56;;;18.34;52.98
48778;BME280;34578;0.000;0.000;2024-01-06T11:44:50;95788.03;;;18.30;52.70
48778;BME280;34578;0.000;0.000;2024-01-06T11:49:54;95789.69;;;18.31;52.67
48778;BME280;34578;0.000;0.000;2024-01-06T11:54:55;95793.91;;;18.29;53.11
48778;BME280;34578;0.000;0.000;2024-01-06T11:59:56;95796.47;;;18.32;52.20
48778;BME280;34578;0.000;0.000;2024-01-06T12:04:56;95796.47;;;18.29;52.00
48778;BME280;34578;0.000;0.000;2024-01-06T12:10:03;95793.09;;;18.30;52.48
48778;BME280;34578;0.000;0.000;2024-01-06T12:15:05;95782.13;;;18.26;53.00
48778;BME280;34578;0.000;0.000;2024-01-06T12:20:05;95785.47;;;18.31;52.00
48778;BME280;34578;0.000;0.000;2024-01-06T12:25:09;95775.38;;;18.27;51.07
48778;BME280;34578;0.000;0.000;2024-01-06T12:30:14;95788.00;;;18.33;52.25
48778;BME280;34578;0.000;0.000;2024-01-06T12:35:20;95766.78;;;18.40;49.59
48778;BME280;34578;0.000;0.000;2024-01-06T12:40:21;95769.25;;;18.43;49.35
48778;BME280;34578;0.000;0.000;2024-01-06T12:45:22;95769.25;;;18.43;49.51
48778;BME280;34578;0.000;0.000;2024-01-06T12:50:22;95776.84;;;18.44;48.61
48778;BME280;34578;0.000;0.000;2024-01-06T12:55:22;95759.13;;;18.43;48.26
48778;BME280;34578;0.000;0.000;2024-01-06T13:00:23;95773.47;;;18.45;48.06
48778;BME280;34578;0.000;0.000;2024-01-06T13:05:23;95772.56;;;18.48;47.51
48778;BME280;34578;0.000;0.000;2024-01-06T13:10:23;95776.81;;;18.47;49.12
48778;BME280;34578;0.000;0.000;2024-01-06T13:15:24;95760.88;;;18.39;49.41
48778;BME280;34578;0.000;0.000;2024-01-06T13:20:24;95775.16;;;18.45;50.68
48778;BME280;34578;0.000;0.000;2024-01-06T13:25:25;95781.13;;;18.41;50.51
48778;BME280;34578;0.000;0.000;2024-01-06T13:30:25;95784.47;;;18.43;48.86
48778;BME280;34578;0.000;0.000;2024-01-06T13:35:26;95790.47;;;18.36;52.69
48778;BME280;34578;0.000;0.000;2024-01-06T13:40:26;95786.22;;;18.38;50.43
48778;BME280;34578;0.000;0.000;2024-01-06T13:45:26;95789.63;;;18.35;51.19
48778;BME280;34578;0.000;0.000;2024-01-06T13:50:30;95788.81;;;18.33;52.52
48778;BME280;34578;0.000;0.000;2024-01-06T13:55:30;95779.63;;;18.25;52.02
48778;BME280;34578;0.000;0.000;2024-01-06T14:00:30;95797.31;;;18.31;52.42
48778;BME280;34578;0.000;0.000;2024-01-06T14:05:31;95798.16;;;18.30;51.99
48778;BME280;34578;0.000;0.000;2024-01-06T14:10:32;95795.56;;;18.36;51.71
48778;BME280;34578;0.000;0.000;2024-01-06T14:15:32;95804.88;;;18.34;52.66
48778;BME280;34578;0.000;0.000;2024-01-06T14:20:33;95799.81;;;18.34;52.70
48778;BME280;34578;0.000;0.000;2024-01-06T14:25:38;95804.88;;;18.34;52.03
48778;BME280;34578;0.000;0.000;2024-01-06T14:30:38;95813.34;;;18.33;52.54
48778;BME280;34578;0.000;0.000;2024-01-06T14:35:38;95804.13;;;18.26;49.29
48778;BME280;34578;0.000;0.000;2024-01-06T14:40:39;95810.00;;;18.29;51.69
48778;BME280;34578;0.000;0.000;2024-01-06T14:45:39;95813.28;;;18.36;48.65
48778;BME280;34578;0.000;0.000;2024-01-06T14:50:39;95822.63;;;18.34;51.53
48778;BME280;34578;0.000;0.000;2024-01-06T14:55:40;95822.66;;;18.28;52.38
48778;BME280;34578;0.000;0.000;2024-01-06T15:00:40;95831.88;;;18.35;49.72
48778;BME280;34578;0.000;0.000;2024-01-06T15:05:41;95840.38;;;18.28;53.28
48778;BME280;34578;0.000;0.000;2024-01-06T15:10:41;95843.78;;;18.30;52.55
48778;BME280;34578;0.000;0.000;2024-01-06T15:15:41;95842.94;;;18.29;52.64
48778;BME280;34578;0.000;0.000;2024-01-06T15:20:42;95846.31;;;18.28;53.26
48778;BME280;34578;0.000;0.000;2024-01-06T15:25:42;95837.00;;;18.29;53.10
48778;BME280;34578;0.000;0.000;2024-01-06T15:30:44;95835.31;;;18.31;51.63
48778;BME280;34578;0.000;0.000;2024-01-06T15:35:45;95846.22;;;18.36;50.66
48778;BME280;34578;0.000;0.000;2024-01-06T15:40:45;95847.97;;;18.32;49.56
48778;BME280;34578;0.000;0.000;2024-01-06T15:45:45;95852.22;;;18.32;50.97
48778;BME280;34578;0.000;0.000;2024-01-06T15:50:46;95858.97;;;18.30;52.22
48778;BME280;34578;0.000;0.000;2024-01-06T15:55:46;95864.03;;;18.33;52.00
48778;BME280;34578;0.000;0.000;2024-01-06T16:00:47;95860.63;;;18.31;52.44
48778;BME280;34578;0.000;0.000;2024-01-06T16:05:47;95863.97;;;18.36;49.99
48778;BME280;34578;0.000;0.000;2024-01-06T16:10:47;95872.38;;;18.38;48.52
48778;BME280;34578;0.000;0.000;2024-01-06T16:15:50;95875.78;;;18.37;50.94
48778;BME280;34578;0.000;0.000;2024-01-06T16:20:51;95869.09;;;18.33;51.53
48778;BME280;34578;0.000;0.000;2024-01-06T16:25:53;95864.03;;;18.30;51.24
48778;BME280;34578;0.000;0.000;2024-01-06T16:30:53;95872.44;;;18.33;50.71
48778;BME280;34578;0.000;0.000;2024-01-06T16:35:54;95880.91;;;18.34;47.61
48778;BME280;34578;0.000;0.000;2024-01-06T16:40:54;95869.84;;;18.38;46.77
48778;BME280;34578;0.000;0.000;2024-01-06T16:45:55;95874.91;;;18.38;47.95
48778;BME280;34578;0.000;0.000;2024-01-06T16:50:56;95879.97;;;18.41;48.31
48778;BME280;34578;0.000;0.000;2024-01-06T16:55:56;95885.91;;;18.35;48.09
48778;BME280;34578;0.000;0.000;2024-01-06T17:00:56;95889.28;;;18.37;50.68
48778;BME280;34578;0.000;0.000;2024-01-06T17:05:57;95889.38;;;18.30;48.05
48778;BME280;34578;0.000;0.000;2024-01-06T17:10:57;95892.69;;;18.35;47.42
48778;BME280;34578;0.000;0.000;2024-01-06T17:15:58;95899.44;;;18.37;46.50
48778;BME280;34578;0.000;0.000;2024-01-06T17:20:59;95896.09;;;18.34;46.20
48778;BME280;34578;0.000;0.000;2024-01-06T17:26:00;95902.78;;;18.38;45.57
48778;BME280;34578;0.000;0.000;2024-01-06T17:31:00;95904.50;;;18.36;50.40
48778;BME280;34578;0.000;0.000;2024-01-06T17:36:01;95912.06;;;18.39;50.29
48778;BME280;34578;0.000;0.000;2024-01-06T17:41:01;95918.88;;;18.35;50.94
48778;BME280;34578;0.000;0.000;2024-01-06T17:46:01;95917.22;;;18.33;52.25
48778;BME280;34578;0.000;0.000;2024-01-06T17:51:02;95919.75;;;18.33;51.74
48778;BME280;34578;0.000;0.000;2024-01-06T17:56:03;95921.44;;;18.34;49.73
48778;BME280;34578;0.000;0.000;2024-01-06T18:01:03;95918.88;;;18.35;46.25
48778;BME280;34578;0.000;0.000;2024-01-06T18:06:04;95928.19;;;18.35;46.80
48778;BME280;34578;0.000;0.000;2024-01-06T18:11:04;95934.09;;;18.34;46.29
48778;BME280;34578;0.000;0.000;2024-01-06T18:16:05;95923.97;;;18.32;48.42
48778;BME280;34578;0.000;0.000;2024-01-06T18:21:06;95931.59;;;18.31;50.43
48778;BME280;34578;0.000;0.000;2024-01-06T18:26:08;95932.44;;;18.30;50.13
48778;BME280;34578;0.000;0.000;2024-01-06T18:31:09;95928.25;;;18.26;52.84
48778;BME280;34578;0.000;0.000;2024-01-06T18:36:09;95935.84;;;18.32;52.32
48778;BME280;34578;0.000;0.000;2024-01-06T18:41:11;95940.84;;;18.33;52.02
48778;BME280;34578;0.000;0.000;2024-01-06T18:46:11;95941.72;;;18.34;52.54
48778;BME280;34578;0.000;0.000;2024-01-06T18:51:12;95945.91;;;18.36;51.47
48778;BME280;34578;0.000;0.000;2024-01-06T18:56:12;95941.66;;;18.37;51.40
48778;BME280;34578;0.000;0.000;2024-01-06T19:01:13;95943.38;;;18.35;52.57
48778;BME280;34578;0.000;0.000;2024-01-06T19:06:14;95934.13;;;18.31;51.31
48778;BME280;34578;0.000;0.000;2024-01-06T19:11:14;95940.00;;;18.36;50.56
48778;BME280;34578;0.000;0.000;2024-01-06T19:16:15;95938.25;;;18.38;50.60
48778;BME280;34578;0.000;0.000;2024-01-06T19:21:15;95936.53;;;18.41;48.51
48778;BME280;34578;0.000;0.000;2024-01-06T19:26:16;95938.25;;;18.38;51.73
48778;BME280;34578;0.000;0.000;2024-01-06T19:31:17;95946.72;;;18.40;50.88
48778;BME280;34578;0.000;0.000;2024-01-06T19:36:17;95940.78;;;18.39;51.65
48778;BME280;34578;0.000;0.000;2024-01-06T19:41:18;95944.19;;;18.38;53.29
48778;BME280;34578;0.000;0.000;2024-01-06T19:46:18;95944.19;;;18.35;52.74
48778;BME280;34578;0.000;0.000;2024-01-06T19:51:18;95934.91;;;18.36;51.85
48778;BME280;34578;0.000;0.000;2024-01-06T19:56:19;95934.06;;;18.37;51.66
48778;BME280;34578;0.000;0.000;2024-01-06T20:01:19;95940.00;;;18.36;52.13
48778;BME280;34578;0.000;0.000;2024-01-06T20:06:20;95932.38;;;18.36;51.47
48778;BME280;34578;0.000;0.000;2024-01-06T20:11:20;95941.72;;;18.34;52.62
48778;BME280;34578;0.000;0.000;2024-01-06T20:16:20;95940.03;;;18.33;52.52
48778;BME280;34578;0.000;0.000;2024-01-06T20:21:21;95941.72;;;18.34;51.92
48778;BME280;34578;0.000;0.000;2024-01-06T20:26:21;95925.66;;;18.35;51.58
48778;BME280;34578;0.000;0.000;2024-01-06T20:31:22;95933.25;;;18.33;52.69
48778;BME280;34578;0.000;0.000;2024-01-06T20:36:22;95927.38;;;18.31;53.23
48778;BME280;34578;0.000;0.000;2024-01-06T20:41:23;95929.84;;;18.36;49.72
48778;BME280;34578;0.000;0.000;2024-01-06T20:46:23;95927.25;;;18.42;49.85
48778;BME280;34578;0.000;0.000;2024-01-06T20:51:26;95927.19;;;18.46;49.48
48778;BME280;34578;0.000;0.000;2024-01-06T20:56:26;95920.41;;;18.50;49.80
48778;BME280;34578;0.000;0.000;2024-01-06T21:01:27;95912.81;;;18.47;47.56
48778;BME280;34578;0.000;0.000;2024-01-06T21:06:27;95912.00;;;18.46;50.52
48778;BME280;34578;0.000;0.000;2024-01-06T21:11:27;95918.72;;;18.49;51.31
48778;BME280;34578;0.000;0.000;2024-01-06T21:16:28;95921.25;;;18.49;52.19
48778;BME280;34578;0.000;0.000;2024-01-06T21:21:29;95918.72;;;18.47;50.60
48778;BME280;34578;0.000;0.000;2024-01-06T21:26:29;95905.44;;;18.30;51.84
48778;BME280;34578;0.000;0.000;2024-01-06T21:31:31;95920.44;;;18.45;51.15
48778;BME280;34578;0.000;0.000;2024-01-06T21:36:32;95914.56;;;18.42;51.67
48778;BME280;34578;0.000;0.000;2024-01-06T21:41:32;95919.59;;;18.43;49.17
48778;BME280;34578;0.000;0.000;2024-01-06T21:46:33;95914.53;;;18.45;51.46
48778;BME280;34578;0.000;0.000;2024-01-06T21:51:33;95915.38;;;18.44;50.93
48778;BME280;34578;0.000;0.000;2024-01-06T21:56:33;95920.44;;;18.45;51.50
48778;BME280;34578;0.000;0.000;2024-01-06T22:01:34;95921.31;;;18.43;51.31
48778;BME280;34578;0.000;0.000;2024-01-06T22:06:34;95922.16;;;18.43;50.24
48778;BME280;34578;0.000;0.000;2024-01-06T22:11:38;95916.31;;;18.40;50.43
48778;BME280;34578;0.000;0.000;2024-01-06T22:16:39;95927.19;;;18.45;49.37
48778;BME280;34578;0.000;0.000;2024-01-06T22:21:41;95924.66;;;18.45;49.95
48778;BME280;34578;0.000;0.000;2024-01-06T22:26:41;95923.84;;;18.43;50.34
48778;BME280;34578;0.000;0.000;2024-01-06T22:31:42;95928.00;;;18.47;50.05
48778;BME280;34578;0.000;0.000;2024-01-06T22:36:46;95920.50;;;18.41;50.08
48778;BME280;34578;0.000;0.000;2024-01-06T22:41:46;95928.06;;;18.44;49.58
48778;BME280;34578;0.000;0.000;2024-01-06T22:46:48;95928.06;;;18.44;50.78
48778;BME280;34578;0.000;0.000;2024-01-06T22:51:48;95925.53;;;18.45;49.86
48778;BME280;34578;0.000;0.000;2024-01-06T22:56:49;95931.41;;;18.46;49.91
48778;BME280;34578;0.000;0.000;2024-01-06T23:01:51;95925.53;;;18.45;51.38
48778;BME280;34578;0.000;0.000;2024-01-06T23:06:52;95928.84;;;18.49;50.46
48778;BME280;34578;0.000;0.000;2024-01-06T23:11:54;95929.66;;;18.51;48.88
48778;BME280;34578;0.000;0.000;2024-01-06T23:16:54;95934.75;;;18.51;48.78
48778;BME280;34578;0.000;0.000;2024-01-06T23:21:54;95929.66;;;18.51;50.72
48778;BME280;34578;0.000;0.000;2024-01-06T23:26:55;95937.28;;;18.51;50.18
48778;BME280;34578;0.000;0.000;2024-01-06T23:31:55;95939.81;;;18.51;48.51
48778;BME280;34578;0.000;0.000;2024-01-06T23:36:55;95939.81;;;18.48;49.42
48778;BME280;34578;0.000;0.000;2024-01-06T23:41:55;95936.41;;;18.50;49.73
48778;BME280;34578;0.000;0.000;2024-01-06T23:46:56;95944.03;;;18.50;50.70
48778;BME280;34578;0.000;0.000;2024-01-06T23:51:56;95933.00;;;18.53;48.72
48778;BME280;34578;0.000;0.000;2024-01-06T23:56:56;95949.06;;;18.53;50.27
